createdAt,value
2018-03-02T00:01:26.947Z,69.12
2018-03-02T00:03:55.292Z,77.43
2018-03-02T00:06:22.886Z,78.15
2018-03-02T00:08:50.457Z,68.87
2018-03-02T00:11:18.849Z,90.68
2018-03-02T00:13:47.254Z,82.03
2018-03-02T00:16:14.845Z,75.18
2018-03-02T00:18:42.469Z,70.32
2018-03-02T00:21:10.080Z,75.50
2018-03-02T00:23:37.654Z,73.20
2018-03-02T00:26:06.035Z,89.32
2018-03-02T00:28:33.674Z,74.28
2018-03-02T00:31:01.287Z,83.45
2018-03-02T00:33:28.878Z,69.35
2018-03-02T00:35:56.510Z,83.37
2018-03-02T00:38:24.106Z,81.82
2018-03-02T00:40:51.700Z,81.85
2018-03-02T00:43:20.094Z,75.75
2018-03-02T00:45:48.569Z,71.20
2018-03-02T00:48:16.190Z,79.35
2018-03-02T00:50:43.791Z,72.12
2018-03-02T00:53:11.440Z,77.93
2018-03-02T00:55:39.069Z,73.32
2018-03-02T00:58:06.658Z,69.07
2018-03-02T01:00:34.321Z,70.10
2018-03-02T01:03:01.887Z,76.70
2018-03-02T01:05:29.508Z,75.40
2018-03-02T01:07:57.098Z,86.72
2018-03-02T01:10:24.706Z,73.55
2018-03-02T01:12:52.329Z,76.68
2018-03-02T01:15:19.919Z,76.97
2018-03-02T01:17:48.274Z,75.62
2018-03-02T01:20:15.831Z,66.55
2018-03-02T01:22:43.441Z,77.25
2018-03-02T01:25:11.057Z,76.35
2018-03-02T01:27:38.615Z,71.37
2018-03-02T01:30:06.192Z,79.93
2018-03-02T01:32:33.797Z,75.00
2018-03-02T01:35:01.421Z,74.65
2018-03-02T01:37:29.041Z,73.97
2018-03-02T01:39:56.593Z,76.87
2018-03-02T01:42:24.194Z,72.25
2018-03-02T01:44:51.769Z,75.37
2018-03-02T01:47:20.165Z,79.82
2018-03-02T01:49:48.495Z,71.03
2018-03-02T01:52:16.067Z,65.90
2018-03-02T01:54:43.677Z,74.82
2018-03-02T01:57:11.259Z,73.03
2018-03-02T01:59:38.874Z,68.93
2018-03-02T02:02:07.192Z,63.63
2018-03-02T02:04:34.761Z,66.97
2018-03-02T02:07:02.400Z,76.22
2018-03-02T02:09:29.962Z,64.90
2018-03-02T02:11:59.720Z,68.68
2018-03-02T02:14:29.570Z,79.20
2018-03-02T02:16:59.241Z,73.60
2018-03-02T02:19:28.941Z,62.83
2018-03-02T02:21:57.641Z,81.25
2018-03-02T02:24:26.461Z,54.15
2018-03-02T02:26:55.944Z,78.40
2018-03-02T02:29:25.572Z,65.43
2018-03-02T02:31:56.230Z,82.35
2018-03-02T02:34:26.001Z,71.95
2018-03-02T02:36:55.821Z,61.45
2018-03-02T02:39:26.019Z,76.40
2018-03-02T02:41:55.910Z,70.70
2018-03-02T02:44:25.776Z,70.47
2018-03-02T02:46:56.694Z,68.55
2018-03-02T02:49:27.298Z,76.15
2018-03-02T02:51:57.055Z,74.28
2018-03-02T02:54:26.659Z,62.67
2018-03-02T02:56:56.207Z,70.37
2018-03-02T02:59:25.700Z,74.75
2018-03-02T03:01:55.446Z,66.50
2018-03-02T03:04:24.935Z,70.20
2018-03-02T03:06:54.659Z,64.12
2018-03-02T03:09:24.315Z,74.37
2018-03-02T03:11:53.664Z,68.47
2018-03-02T03:14:21.273Z,73.40
2018-03-02T03:16:48.879Z,66.57
2018-03-02T03:19:16.456Z,70.32
2018-03-02T03:21:44.064Z,74.68
2018-03-02T03:24:11.637Z,73.32
2018-03-02T03:26:39.258Z,87.10
2018-03-02T03:29:06.856Z,76.68
2018-03-02T03:31:35.185Z,64.60
2018-03-02T03:34:02.800Z,70.53
2018-03-02T03:36:31.156Z,61.97
2018-03-02T03:38:58.763Z,74.00
2018-03-02T03:41:26.384Z,81.85
2018-03-02T03:43:54.781Z,78.40
2018-03-02T03:46:22.338Z,79.03
2018-03-02T03:48:49.909Z,60.05
2018-03-02T03:51:18.332Z,71.85
2018-03-02T03:53:45.914Z,72.18
2018-03-02T03:56:13.583Z,75.72
2018-03-02T03:58:41.940Z,69.93
2018-03-02T04:01:09.543Z,80.00
2018-03-02T04:03:37.114Z,73.72
2018-03-02T04:06:05.541Z,71.93
2018-03-02T04:08:33.105Z,66.32
2018-03-02T04:11:00.795Z,79.03
2018-03-02T04:13:28.415Z,71.57
2018-03-02T04:15:55.996Z,64.68
2018-03-02T04:18:24.559Z,72.93
2018-03-02T04:20:52.185Z,71.68
2018-03-02T04:23:20.650Z,69.75
2018-03-02T04:25:48.210Z,86.40
2018-03-02T04:28:15.842Z,72.35
2018-03-02T04:30:43.408Z,75.75
2018-03-02T04:33:11.034Z,78.75
2018-03-02T04:35:38.603Z,68.85
2018-03-02T04:38:06.954Z,67.70
2018-03-02T04:40:35.363Z,73.87
2018-03-02T04:43:02.953Z,79.97
2018-03-02T04:45:30.598Z,66.87
2018-03-02T04:47:58.178Z,73.57
2018-03-02T04:50:25.778Z,69.10
2018-03-02T04:52:54.199Z,71.30
2018-03-02T04:55:21.838Z,74.43
2018-03-02T04:57:49.437Z,84.15
2018-03-02T05:00:17.129Z,61.70
2018-03-02T05:02:44.699Z,69.80
2018-03-02T05:05:12.305Z,80.30
2018-03-02T05:07:39.901Z,76.95
2018-03-02T05:10:07.482Z,81.63
2018-03-02T05:12:35.097Z,67.68
2018-03-02T05:15:02.701Z,75.30
2018-03-02T05:17:30.345Z,71.97
2018-03-02T05:19:57.918Z,63.35
2018-03-02T05:22:25.497Z,79.47
2018-03-02T05:24:53.888Z,65.95
2018-03-02T05:27:22.288Z,77.37
2018-03-02T05:29:49.842Z,73.78
2018-03-02T05:32:17.430Z,76.62
2018-03-02T05:34:45.044Z,69.93
2018-03-02T05:37:13.393Z,85.07
2018-03-02T05:39:40.953Z,76.90
2018-03-02T05:42:08.575Z,78.82
2018-03-02T05:44:36.191Z,73.80
2018-03-02T05:47:03.822Z,77.37
2018-03-02T05:49:31.442Z,72.53
2018-03-02T05:51:59.821Z,73.22
2018-03-02T05:54:28.170Z,88.90
2018-03-02T05:56:55.802Z,82.22
2018-03-02T05:59:23.360Z,73.65
2018-03-02T06:01:50.957Z,77.37
2018-03-02T06:04:19.339Z,79.55
2018-03-02T06:06:46.966Z,74.60
2018-03-02T06:09:14.554Z,79.72
2018-03-02T06:11:42.164Z,83.37
2018-03-02T06:14:09.926Z,76.57
2018-03-02T06:16:37.530Z,78.82
2018-03-02T06:19:05.177Z,76.95
2018-03-02T06:21:32.889Z,91.70
2018-03-02T06:24:00.493Z,79.37
2018-03-02T06:26:28.101Z,69.95
2018-03-02T06:28:55.769Z,85.80
2018-03-02T06:31:24.243Z,85.20
2018-03-02T06:33:51.895Z,69.05
2018-03-02T06:36:19.575Z,52.60
2018-03-02T06:38:47.217Z,84.22
2018-03-02T06:41:14.964Z,73.72
2018-03-02T06:43:42.601Z,81.22
2018-03-02T06:46:10.349Z,68.70
2018-03-02T06:48:38.188Z,68.62
2018-03-02T06:51:10.100Z,75.07
2018-03-02T06:53:38.827Z,80.10
2018-03-02T06:56:07.447Z,78.18
2018-03-02T06:58:35.916Z,81.97
2018-03-02T07:01:18.545Z,81.97
2018-03-02T07:03:46.818Z,73.35
2018-03-02T07:06:15.232Z,72.20
2018-03-02T07:08:42.862Z,87.53
2018-03-02T07:11:11.248Z,72.57
2018-03-02T07:13:39.615Z,79.32
2018-03-02T07:16:08.071Z,78.70
2018-03-02T07:18:36.459Z,71.93
2018-03-02T07:21:04.100Z,76.60
2018-03-02T07:23:31.728Z,74.00
2018-03-02T07:25:59.555Z,72.20
2018-03-02T07:28:28.286Z,71.85
2018-03-02T07:30:55.982Z,69.57
2018-03-02T07:33:23.599Z,88.03
2018-03-02T07:35:53.278Z,75.15
2018-03-02T07:38:20.911Z,82.47
2018-03-02T07:40:48.772Z,67.95
2018-03-02T07:43:16.402Z,76.35
2018-03-02T07:45:43.991Z,78.82
2018-03-02T07:48:12.708Z,80.57
2018-03-02T07:50:40.329Z,85.10
2018-03-02T07:53:08.380Z,84.93
2018-03-02T07:55:36.184Z,89.40
2018-03-02T07:58:04.673Z,85.78
2018-03-02T08:00:32.336Z,80.38
2018-03-02T08:03:00.079Z,87.82
2018-03-02T08:05:28.504Z,82.15
2018-03-02T08:07:56.457Z,76.35
2018-03-02T08:10:24.101Z,96.03
2018-03-02T08:12:51.798Z,81.55
2018-03-02T08:15:20.231Z,94.97
2018-03-02T08:17:47.858Z,90.72
2018-03-02T08:20:16.227Z,76.10
2018-03-02T08:22:43.964Z,82.28
2018-03-02T08:25:11.957Z,99.53
2018-03-02T08:27:39.654Z,81.12
2018-03-02T08:30:08.115Z,75.00
2018-03-02T08:32:35.921Z,80.80
2018-03-02T08:35:03.587Z,69.07
2018-03-02T08:37:31.934Z,79.95
2018-03-02T08:40:00.327Z,88.37
2018-03-02T08:42:28.900Z,81.85
2018-03-02T08:44:56.664Z,74.15
2018-03-02T08:47:25.281Z,84.93
2018-03-02T08:49:52.947Z,75.00
2018-03-02T08:52:21.282Z,75.90
2018-03-02T08:54:49.031Z,76.28
2018-03-02T08:57:16.846Z,86.25
2018-03-02T08:59:44.432Z,78.15
2018-03-02T09:02:12.071Z,95.45
2018-03-02T09:04:39.656Z,87.37
2018-03-02T09:07:07.245Z,80.43
2018-03-02T09:09:34.889Z,89.50
2018-03-02T09:12:02.451Z,83.87
2018-03-02T09:14:30.113Z,78.15
2018-03-02T09:16:57.669Z,82.12
2018-03-02T09:19:26.224Z,88.07
2018-03-02T09:21:54.690Z,82.95
2018-03-02T09:24:23.030Z,87.37
2018-03-02T09:26:50.625Z,98.15
2018-03-02T09:29:18.989Z,86.18
2018-03-02T09:31:46.607Z,86.18
2018-03-02T09:34:14.198Z,99.40
2018-03-02T09:36:41.857Z,78.05
2018-03-02T09:39:09.422Z,82.35
2018-03-02T09:41:37.017Z,87.53
2018-03-02T09:44:05.553Z,79.75
2018-03-02T09:46:33.160Z,74.72
2018-03-02T09:49:01.539Z,87.90
2018-03-02T09:51:29.906Z,97.25
2018-03-02T09:53:57.498Z,75.62
2018-03-02T09:56:25.924Z,91.95
2018-03-02T09:58:53.577Z,84.87
2018-03-02T10:01:21.198Z,78.45
2018-03-02T10:03:48.790Z,80.53
2018-03-02T10:06:16.374Z,71.82
2018-03-02T10:08:43.948Z,81.35
2018-03-02T10:11:11.569Z,81.45
2018-03-02T10:13:39.141Z,79.82
2018-03-02T10:16:06.802Z,93.62
2018-03-02T10:18:36.551Z,85.87
2018-03-02T10:21:05.996Z,91.63
2018-03-02T10:23:35.723Z,100.30
2018-03-02T10:26:04.468Z,74.78
2018-03-02T10:28:33.098Z,75.40
2018-03-02T10:31:02.108Z,88.15
2018-03-02T10:33:30.885Z,81.63
2018-03-02T10:35:59.845Z,87.95
2018-03-02T10:38:29.184Z,90.72
2018-03-02T10:40:57.460Z,89.82
2018-03-02T10:43:26.072Z,84.07
2018-03-02T10:45:54.093Z,78.50
2018-03-02T10:48:22.891Z,80.80
2018-03-02T10:50:51.638Z,83.78
2018-03-02T10:53:19.200Z,79.95
2018-03-02T10:55:46.915Z,78.53
2018-03-02T10:58:14.517Z,83.10
2018-03-02T11:00:47.954Z,79.72
2018-03-02T11:03:21.175Z,73.95
2018-03-02T11:05:48.893Z,101.68
2018-03-02T11:08:17.313Z,83.80
2018-03-02T11:10:45.034Z,74.55
2018-03-02T11:13:13.466Z,94.87
2018-03-02T11:15:41.159Z,87.62
2018-03-02T11:18:08.978Z,74.87
2018-03-02T11:20:36.788Z,80.53
2018-03-02T11:23:04.456Z,75.85
2018-03-02T11:25:32.108Z,80.60
2018-03-02T11:27:59.833Z,76.40
2018-03-02T11:30:27.449Z,80.10
2018-03-02T11:32:55.673Z,88.30
2018-03-02T11:35:24.788Z,82.93
2018-03-02T11:37:53.555Z,89.13
2018-03-02T11:40:21.349Z,85.40
2018-03-02T11:42:49.531Z,83.85
2018-03-02T11:45:17.162Z,83.10
2018-03-02T11:47:44.730Z,76.87
2018-03-02T11:50:12.333Z,80.10
2018-03-02T11:52:40.023Z,89.97
2018-03-02T11:55:07.582Z,84.10
2018-03-02T11:57:35.993Z,82.00
2018-03-02T12:00:03.588Z,86.85
2018-03-02T12:02:31.550Z,79.80
2018-03-02T12:04:59.301Z,93.15
2018-03-02T12:07:26.877Z,86.12
2018-03-02T12:09:54.627Z,88.40
2018-03-02T12:12:22.258Z,87.03
2018-03-02T12:14:49.819Z,93.57
2018-03-02T12:17:17.449Z,77.30
2018-03-02T12:19:45.033Z,87.32
2018-03-02T12:22:13.462Z,88.62
2018-03-02T12:24:42.093Z,86.87
2018-03-02T12:30:38.293Z,96.07
2018-03-02T12:33:06.159Z,87.65
2018-03-02T12:35:34.071Z,88.00
2018-03-02T12:38:01.856Z,86.22
2018-03-02T12:40:29.480Z,106.10
2018-03-02T12:42:57.173Z,99.50
2018-03-02T12:45:25.549Z,90.30
2018-03-02T12:47:53.960Z,103.72
2018-03-02T12:50:21.598Z,80.90
2018-03-02T12:52:50.020Z,88.95
2018-03-02T12:55:17.593Z,87.47
2018-03-02T12:57:45.173Z,89.60
2018-03-02T13:00:12.746Z,82.30
2018-03-02T13:02:41.143Z,80.57
2018-03-02T13:05:09.470Z,88.10
2018-03-02T13:07:37.076Z,86.28
2018-03-02T13:10:04.691Z,78.28
2018-03-02T13:12:32.266Z,101.03
2018-03-02T13:14:59.926Z,89.15
2018-03-02T13:17:27.615Z,85.57
2018-03-02T13:19:55.284Z,96.30
2018-03-02T13:22:42.176Z,92.18
2018-03-02T13:25:09.901Z,86.55
2018-03-02T13:27:50.044Z,95.07
2018-03-02T13:30:18.773Z,82.37
2018-03-02T13:32:58.324Z,77.35
2018-03-02T13:35:25.929Z,88.37
2018-03-02T13:37:54.256Z,82.10
2018-03-02T13:40:33.795Z,83.00
2018-03-02T13:43:01.424Z,95.97
2018-03-02T13:45:29.008Z,97.20
2018-03-02T13:51:10.577Z,86.78
2018-03-02T13:53:38.308Z,96.03
2018-03-02T13:56:06.734Z,84.50
2018-03-02T13:58:34.321Z,83.87
2018-03-02T14:01:02.688Z,87.68
2018-03-02T14:03:53.874Z,103.97
2018-03-02T14:06:21.633Z,70.97
2018-03-02T14:08:49.259Z,98.65
2018-03-02T14:11:17.999Z,92.82
2018-03-02T14:13:45.988Z,103.95
2018-03-02T14:16:15.603Z,95.62
2018-03-02T14:18:44.268Z,87.07
2018-03-02T14:21:13.514Z,82.20
2018-03-02T14:23:46.228Z,92.28
2018-03-02T14:26:15.383Z,90.22
2018-03-02T14:28:43.808Z,87.93
2018-03-02T14:31:12.866Z,89.18
2018-03-02T14:33:41.785Z,93.60
2018-03-02T14:36:10.598Z,97.10
2018-03-02T14:38:39.466Z,91.45
2018-03-02T14:41:07.076Z,84.07
2018-03-02T14:43:35.468Z,90.47
2018-03-02T14:46:04.082Z,85.45
2018-03-02T14:48:36.661Z,77.10
2018-03-02T14:51:04.318Z,86.37
2018-03-02T14:53:32.007Z,86.87
2018-03-02T14:55:59.588Z,75.05
2018-03-02T14:58:27.225Z,83.68
2018-03-02T15:00:54.960Z,87.00
2018-03-02T15:03:22.545Z,90.05
2018-03-02T15:05:50.172Z,98.45
2018-03-02T15:08:17.748Z,99.97
2018-03-02T15:10:47.812Z,82.45
2018-03-02T15:13:16.202Z,86.87
2018-03-02T15:15:44.975Z,75.72
2018-03-02T15:18:13.180Z,89.07
2018-03-02T15:20:40.927Z,85.22
2018-03-02T15:23:09.286Z,91.80
2018-03-02T15:25:36.858Z,84.43
2018-03-02T15:28:06.033Z,98.78
2018-03-02T15:30:33.670Z,89.82
2018-03-02T15:33:01.256Z,86.05
2018-03-02T15:35:28.889Z,94.62
2018-03-02T15:37:57.112Z,102.47
2018-03-02T15:40:24.694Z,103.30
2018-03-02T15:42:53.125Z,85.47
2018-03-02T15:45:20.799Z,87.45
2018-03-02T15:47:48.379Z,96.63
2018-03-02T15:50:16.782Z,100.28
2018-03-02T15:52:45.122Z,94.30
2018-03-02T15:55:12.743Z,85.60
2018-03-02T15:57:40.359Z,86.75
2018-03-02T16:00:07.995Z,86.80
2018-03-02T16:02:35.588Z,95.00
2018-03-02T16:05:03.180Z,84.95
2018-03-02T16:07:30.807Z,96.47
2018-03-02T16:09:58.397Z,90.85
2018-03-02T16:12:26.776Z,87.35
2018-03-02T16:14:55.146Z,84.47
2018-03-02T16:17:22.718Z,93.78
2018-03-02T16:19:50.361Z,84.30
2018-03-02T16:22:17.946Z,96.70
2018-03-02T16:24:45.579Z,95.85
2018-03-02T16:27:13.187Z,83.95
2018-03-02T16:29:40.855Z,94.78
2018-03-02T16:32:11.509Z,88.78
2018-03-02T16:34:39.095Z,87.30
2018-03-02T16:37:06.716Z,95.45
2018-03-02T16:39:34.302Z,89.40
2018-03-02T16:42:02.695Z,89.37
2018-03-02T16:44:30.355Z,93.90
2018-03-02T16:46:57.949Z,106.53
2018-03-02T16:49:26.323Z,95.97
2018-03-02T16:51:53.967Z,100.80
2018-03-02T16:54:21.545Z,96.32
2018-03-02T16:56:49.945Z,87.22
2018-03-02T16:59:17.561Z,104.38
2018-03-02T17:01:45.172Z,80.07
2018-03-02T17:04:12.823Z,96.75
2018-03-02T17:06:40.414Z,82.03
2018-03-02T17:09:08.023Z,85.12
2018-03-02T17:11:37.246Z,100.65
2018-03-02T17:14:04.865Z,98.85
2018-03-02T17:16:32.459Z,95.05
2018-03-02T17:19:00.142Z,103.53
2018-03-02T17:21:27.746Z,102.47
2018-03-02T17:23:55.344Z,89.40
2018-03-02T17:26:23.723Z,124.15
2018-03-02T17:28:51.358Z,109.10
2018-03-02T17:31:18.957Z,96.93
2018-03-02T17:33:46.611Z,110.55
2018-03-02T17:36:14.194Z,107.40
2018-03-02T17:38:41.799Z,94.22
2018-03-02T17:41:09.394Z,107.50
2018-03-02T17:49:39.723Z,102.35
2018-03-02T17:52:07.361Z,98.00
2018-03-02T17:54:35.024Z,103.35
2018-03-02T17:57:02.607Z,108.18
2018-03-02T17:59:30.214Z,107.10
2018-03-02T18:01:58.626Z,103.50
2018-03-02T18:04:26.198Z,106.20
2018-03-02T18:06:53.773Z,113.82
2018-03-02T18:09:21.393Z,96.32
2018-03-02T18:11:48.968Z,104.55
2018-03-02T18:14:16.599Z,115.82
2018-03-02T18:16:44.205Z,129.55
2018-03-02T18:19:11.837Z,115.78
2018-03-02T18:21:39.458Z,112.80
2018-03-02T18:24:07.079Z,126.62
2018-03-02T18:26:34.709Z,129.20
2018-03-02T18:29:03.058Z,135.57
2018-03-02T18:31:31.470Z,123.32
2018-03-02T18:33:59.061Z,118.68
2018-03-02T18:36:26.692Z,131.52
2018-03-02T18:38:54.263Z,131.10
2018-03-02T18:41:21.944Z,121.70
2018-03-02T18:43:49.575Z,125.18
2018-03-02T18:46:17.911Z,127.32
2018-03-02T18:48:45.517Z,135.63
2018-03-02T18:51:13.143Z,130.82
2018-03-02T18:53:40.739Z,136.60
2018-03-02T18:56:08.350Z,132.20
2018-03-02T18:58:35.971Z,126.47
2018-03-02T19:01:05.714Z,118.10
2018-03-02T19:03:33.302Z,131.85
2018-03-02T19:06:00.921Z,132.40
2018-03-02T19:08:28.498Z,137.32
2018-03-02T19:10:56.204Z,128.27
2018-03-02T19:13:24.547Z,126.75
2018-03-02T19:15:52.162Z,139.52
2018-03-02T19:18:19.726Z,124.87
2018-03-02T19:20:47.338Z,129.82
2018-03-02T19:23:14.968Z,139.35
2018-03-02T19:25:42.572Z,135.73
2018-03-02T19:28:10.167Z,139.57
2018-03-02T19:30:38.554Z,137.15
2018-03-02T19:33:06.128Z,142.00
2018-03-02T19:35:33.706Z,141.90
2018-03-02T19:38:01.349Z,148.82
2018-03-02T19:40:28.928Z,142.05
2018-03-02T19:42:56.544Z,143.30
2018-03-02T19:45:24.170Z,146.37
2018-03-02T19:47:51.743Z,136.12
2018-03-02T19:50:19.454Z,142.82
2018-03-02T19:52:47.028Z,144.13
2018-03-02T19:55:14.622Z,136.10
2018-03-02T19:57:42.258Z,154.80
2018-03-02T20:00:09.834Z,126.40
2018-03-02T20:02:37.489Z,139.70
2018-03-02T20:05:05.077Z,143.95
2018-03-02T20:07:32.674Z,154.48
2018-03-02T20:10:00.336Z,157.52
2018-03-02T20:12:28.702Z,132.00
2018-03-02T20:14:57.140Z,144.62
2018-03-02T20:17:24.760Z,147.82
2018-03-02T20:19:52.334Z,159.37
2018-03-02T20:22:19.946Z,155.82
2018-03-02T20:24:47.514Z,161.40
2018-03-02T20:27:15.921Z,152.87
2018-03-02T20:29:43.502Z,160.98
2018-03-02T20:32:11.156Z,141.60
2018-03-02T20:34:38.742Z,153.75
2018-03-02T20:37:06.364Z,170.93
2018-03-02T20:39:33.952Z,147.25
2018-03-02T20:42:01.578Z,143.13
2018-03-02T20:44:29.214Z,156.12
2018-03-02T20:46:56.810Z,137.88
2018-03-02T20:49:24.419Z,157.32
2018-03-02T20:51:52.047Z,145.73
2018-03-02T20:54:19.636Z,164.05
2018-03-02T20:56:47.210Z,153.68
2018-03-02T20:59:14.821Z,156.25
2018-03-02T21:01:42.455Z,157.20
2018-03-02T21:04:13.456Z,152.48
2018-03-02T21:06:41.096Z,151.23
2018-03-02T21:09:08.671Z,147.68
2018-03-02T21:11:36.251Z,155.80
2018-03-02T21:14:03.866Z,150.02
2018-03-02T21:16:31.486Z,149.77
2018-03-02T21:18:59.888Z,151.65
2018-03-02T21:21:28.236Z,150.52
2018-03-02T21:23:55.814Z,135.52
2018-03-02T21:26:23.431Z,160.93
2018-03-02T21:28:51.004Z,144.93
2018-03-02T21:31:18.616Z,153.45
2018-03-02T21:33:46.963Z,146.40
2018-03-02T21:36:14.643Z,149.40
2018-03-02T21:38:43.047Z,158.82
2018-03-02T21:41:10.670Z,150.27
2018-03-02T21:43:38.343Z,150.55
2018-03-02T21:46:05.886Z,144.73
2018-03-02T21:48:33.508Z,143.30
2018-03-02T21:51:01.094Z,140.85
2018-03-02T21:53:28.748Z,171.73
2018-03-02T21:55:56.327Z,160.73
2018-03-02T21:58:24.227Z,155.90
2018-03-02T22:00:52.568Z,154.50
2018-03-02T22:03:20.191Z,151.35
2018-03-02T22:05:47.767Z,160.00
2018-03-02T22:08:15.342Z,161.12
2018-03-02T22:10:42.962Z,158.52
2018-03-02T22:13:11.306Z,169.35
2018-03-02T22:15:38.925Z,153.60
2018-03-02T22:18:06.526Z,158.73
2018-03-02T22:20:34.146Z,157.40
2018-03-02T22:23:01.727Z,158.68
2018-03-02T22:25:29.361Z,159.37
2018-03-02T22:27:56.980Z,144.13
2018-03-02T22:30:24.554Z,148.35
2018-03-02T22:32:52.838Z,163.77
2018-03-02T22:35:21.182Z,150.77
2018-03-02T22:37:48.810Z,158.75
2018-03-02T22:40:17.177Z,157.73
2018-03-02T22:42:44.764Z,160.45
2018-03-02T22:45:12.403Z,164.65
2018-03-02T22:47:39.983Z,162.40
2018-03-02T22:50:07.626Z,165.00
2018-03-02T22:52:35.251Z,152.93
2018-03-02T22:55:03.660Z,151.87
2018-03-02T22:57:31.248Z,169.50
2018-03-02T22:59:58.882Z,159.90
2018-03-02T23:02:26.462Z,166.43
2018-03-02T23:04:54.107Z,176.63
2018-03-02T23:07:22.476Z,141.93
2018-03-02T23:09:50.066Z,155.75
2018-03-02T23:12:17.711Z,173.00
2018-03-02T23:14:45.304Z,165.07
2018-03-02T23:17:12.943Z,168.43
2018-03-02T23:19:40.532Z,171.80
2018-03-02T23:22:08.106Z,160.65
2018-03-02T23:24:35.746Z,184.10
2018-03-02T23:27:03.327Z,178.93
2018-03-02T23:29:30.954Z,165.15
2018-03-02T23:31:58.531Z,160.27
2018-03-02T23:34:26.162Z,163.93
2018-03-02T23:36:53.775Z,175.38
2018-03-02T23:39:21.363Z,172.30
2018-03-02T23:41:49.751Z,158.98
2018-03-02T23:44:18.104Z,187.77
2018-03-02T23:46:45.717Z,175.38
2018-03-02T23:49:13.296Z,175.02
2018-03-02T23:51:40.938Z,147.68
2018-03-02T23:54:08.528Z,193.23
2018-03-02T23:56:36.104Z,163.55
2018-03-02T23:59:03.710Z,179.43
